sensor_id;sensor_type;location;lat;lon;timestamp;temperature;humidity
70214;DHT22;60138;55.808;37.078;2023-03-24T00:02:15;8.20;63.53
70214;DHT22;60138;55.808;37.078;2023-03-24T00:04:40;8.24;63.66
70214;DHT22;60138;55.808;37.078;2023-03-24T00:07:07;8.30;63.91
70214;DHT22;60138;55.808;37.078;2023-03-24T00:09:33;8.37;63.57
70214;DHT22;60138;55.808;37.078;2023-03-24T00:11:59;8.42;64.01
70214;DHT22;60138;55.808;37.078;2023-03-24T00:14:24;8.45;63.30
70214;DHT22;60138;55.808;37.078;2023-03-24T00:16:50;8.51;63.11
70214;DHT22;60138;55.808;37.078;2023-03-24T00:19:16;8.53;63.17
70214;DHT22;60138;55.808;37.078;2023-03-24T00:21:43;8.56;63.07
70214;DHT22;60138;55.808;37.078;2023-03-24T00:24:10;8.52;63.08
70214;DHT22;60138;55.808;37.078;2023-03-24T00:26:38;8.55;63.06
70214;DHT22;60138;55.808;37.078;2023-03-24T00:29:07;8.59;63.38
70214;DHT22;60138;55.808;37.078;2023-03-24T00:31:33;8.65;63.34
70214;DHT22;60138;55.808;37.078;2023-03-24T00:33:59;8.66;64.04
70214;DHT22;60138;55.808;37.078;2023-03-24T00:36:25;8.60;63.56
70214;DHT22;60138;55.808;37.078;2023-03-24T00:38:53;8.59;63.55
70214;DHT22;60138;55.808;37.078;2023-03-24T00:41:19;8.60;63.06
70214;DHT22;60138;55.808;37.078;2023-03-24T00:43:46;8.64;62.98
70214;DHT22;60138;55.808;37.078;2023-03-24T00:46:14;8.65;62.53
70214;DHT22;60138;55.808;37.078;2023-03-24T00:48:39;8.64;62.96
70214;DHT22;60138;55.808;37.078;2023-03-24T00:51:06;8.62;62.89
70214;DHT22;60138;55.808;37.078;2023-03-24T00:53:32;8.61;62.95
70214;DHT22;60138;55.808;37.078;2023-03-24T00:55:58;8.57;63.22
70214;DHT22;60138;55.808;37.078;2023-03-24T00:58:24;8.57;63.16
70214;DHT22;60138;55.808;37.078;2023-03-24T01:00:55;8.57;63.70
70214;DHT22;60138;55.808;37.078;2023-03-24T01:03:22;8.56;63.15
70214;DHT22;60138;55.808;37.078;2023-03-24T01:05:48;8.55;63.02
70214;DHT22;60138;55.808;37.078;2023-03-24T01:08:16;8.57;63.08
70214;DHT22;60138;55.808;37.078;2023-03-24T01:10:42;8.64;63.37
70214;DHT22;60138;55.808;37.078;2023-03-24T01:13:08;8.66;63.21
70214;DHT22;60138;55.808;37.078;2023-03-24T01:15:34;8.66;63.04
70214;DHT22;60138;55.808;37.078;2023-03-24T01:18:00;8.65;63.19
70214;DHT22;60138;55.808;37.078;2023-03-24T01:20:25;8.65;63.15
70214;DHT22;60138;55.808;37.078;2023-03-24T01:22:51;8.68;63.21
70214;DHT22;60138;55.808;37.078;2023-03-24T01:25:19;8.72;63.31
70214;DHT22;60138;55.808;37.078;2023-03-24T01:27:47;8.73;62.89
70214;DHT22;60138;55.808;37.078;2023-03-24T01:30:16;8.73;63.30
70214;DHT22;60138;55.808;37.078;2023-03-24T01:32:42;8.74;63.27
70214;DHT22;60138;55.808;37.078;2023-03-24T01:35:07;8.75;63.45
70214;DHT22;60138;55.808;37.078;2023-03-24T01:37:33;8.73;62.93
70214;DHT22;60138;55.808;37.078;2023-03-24T01:39:59;8.73;63.03
70214;DHT22;60138;55.808;37.078;2023-03-24T01:42:28;8.75;62.95
70214;DHT22;60138;55.808;37.078;2023-03-24T01:44:58;8.76;62.87
70214;DHT22;60138;55.808;37.078;2023-03-24T01:47:25;8.78;63.00
70214;DHT22;60138;55.808;37.078;2023-03-24T01:49:55;8.79;63.25
70214;DHT22;60138;55.808;37.078;2023-03-24T01:52:26;8.79;62.64
70214;DHT22;60138;55.808;37.078;2023-03-24T01:54:58;8.81;63.00
70214;DHT22;60138;55.808;37.078;2023-03-24T01:57:37;8.85;62.93
70214;DHT22;60138;55.808;37.078;2023-03-24T02:00:10;8.85;62.78
70214;DHT22;60138;55.808;37.078;2023-03-24T02:03:07;8.88;62.73
70214;DHT22;60138;55.808;37.078;2023-03-24T02:05:43;8.89;62.66
70214;DHT22;60138;55.808;37.078;2023-03-24T02:10:46;8.89;62.72
70214;DHT22;60138;55.808;37.078;2023-03-24T02:13:12;8.92;62.70
70214;DHT22;60138;55.808;37.078;2023-03-24T02:37:38;8.77;62.94
70214;DHT22;60138;55.808;37.078;2023-03-24T02:40:32;8.77;63.30
70214;DHT22;60138;55.808;37.078;2023-03-24T02:55:59;8.86;62.89
70214;DHT22;60138;55.808;37.078;2023-03-24T02:58:53;8.85;63.52
70214;DHT22;60138;55.808;37.078;2023-03-24T03:01:34;8.82;63.16
70214;DHT22;60138;55.808;37.078;2023-03-24T03:04:42;8.81;63.24
70214;DHT22;60138;55.808;37.078;2023-03-24T03:07:11;8.82;63.08
70214;DHT22;60138;55.808;37.078;2023-03-24T03:09:48;8.81;63.02
70214;DHT22;60138;55.808;37.078;2023-03-24T03:12:17;8.83;62.95
70214;DHT22;60138;55.808;37.078;2023-03-24T03:14:47;8.81;63.08
70214;DHT22;60138;55.808;37.078;2023-03-24T03:17:20;8.83;63.14
70214;DHT22;60138;55.808;37.078;2023-03-24T03:19:53;8.81;63.15
70214;DHT22;60138;55.808;37.078;2023-03-24T03:22:24;8.81;63.36
70214;DHT22;60138;55.808;37.078;2023-03-24T03:24:52;8.78;63.26
70214;DHT22;60138;55.808;37.078;2023-03-24T03:27:22;8.78;63.49
70214;DHT22;60138;55.808;37.078;2023-03-24T03:29:53;8.76;63.76
70214;DHT22;60138;55.808;37.078;2023-03-24T03:32:27;8.76;63.76
70214;DHT22;60138;55.808;37.078;2023-03-24T03:34:56;8.75;63.98
70214;DHT22;60138;55.808;37.078;2023-03-24T03:37:26;8.72;64.23
70214;DHT22;60138;55.808;37.078;2023-03-24T03:40:03;8.70;64.05
70214;DHT22;60138;55.808;37.078;2023-03-24T03:42:31;8.70;64.01
70214;DHT22;60138;55.808;37.078;2023-03-24T03:44:57;8.71;64.45
70214;DHT22;60138;55.808;37.078;2023-03-24T03:47:23;8.71;64.49
70214;DHT22;60138;55.808;37.078;2023-03-24T03:49:49;8.71;64.16
70214;DHT22;60138;55.808;37.078;2023-03-24T03:52:16;8.71;64.66
70214;DHT22;60138;55.808;37.078;2023-03-24T03:54:42;8.71;64.66
70214;DHT22;60138;55.808;37.078;2023-03-24T03:57:11;8.68;65.40
70214;DHT22;60138;55.808;37.078;2023-03-24T04:00:05;8.64;64.87
70214;DHT22;60138;55.808;37.078;2023-03-24T04:05:35;8.59;65.37
70214;DHT22;60138;55.808;37.078;2023-03-24T04:11:38;8.57;66.42
70214;DHT22;60138;55.808;37.078;2023-03-24T04:18:02;8.58;66.43
70214;DHT22;60138;55.808;37.078;2023-03-24T04:23:44;8.52;66.44
70214;DHT22;60138;55.808;37.078;2023-03-24T04:26:26;8.51;66.98
70214;DHT22;60138;55.808;37.078;2023-03-24T04:32:22;8.45;67.18
70214;DHT22;60138;55.808;37.078;2023-03-24T04:35:01;8.46;67.14
70214;DHT22;60138;55.808;37.078;2023-03-24T04:38:10;8.45;67.51
70214;DHT22;60138;55.808;37.078;2023-03-24T04:40:39;8.43;67.65
70214;DHT22;60138;55.808;37.078;2023-03-24T04:43:09;8.36;67.40
70214;DHT22;60138;55.808;37.078;2023-03-24T04:45:37;8.36;67.68
70214;DHT22;60138;55.808;37.078;2023-03-24T04:48:32;8.36;67.73
70214;DHT22;60138;55.808;37.078;2023-03-24T04:51:11;8.36;67.50
70214;DHT22;60138;55.808;37.078;2023-03-24T04:54:00;8.34;67.75
70214;DHT22;60138;55.808;37.078;2023-03-24T04:56:33;8.36;67.76
70214;DHT22;60138;55.808;37.078;2023-03-24T04:59:08;8.39;67.84
70214;DHT22;60138;55.808;37.078;2023-03-24T05:01:35;8.41;67.87
70214;DHT22;60138;55.808;37.078;2023-03-24T05:04:22;8.41;68.10
70214;DHT22;60138;55.808;37.078;2023-03-24T05:06:48;8.41;69.29
70214;DHT22;60138;55.808;37.078;2023-03-24T05:09:18;8.44;68.29
70214;DHT22;60138;55.808;37.078;2023-03-24T05:11:44;8.44;68.45
70214;DHT22;60138;55.808;37.078;2023-03-24T05:14:10;8.41;68.80
70214;DHT22;60138;55.808;37.078;2023-03-24T05:16:36;8.41;68.49
70214;DHT22;60138;55.808;37.078;2023-03-24T05:19:03;8.47;68.43
70214;DHT22;60138;55.808;37.078;2023-03-24T05:21:32;8.53;68.40
70214;DHT22;60138;55.808;37.078;2023-03-24T05:23:58;8.58;68.20
70214;DHT22;60138;55.808;37.078;2023-03-24T05:26:25;8.58;68.86
70214;DHT22;60138;55.808;37.078;2023-03-24T05:29:02;8.57;68.57
70214;DHT22;60138;55.808;37.078;2023-03-24T05:31:28;8.57;68.39
70214;DHT22;60138;55.808;37.078;2023-03-24T05:34:01;8.57;68.46
70214;DHT22;60138;55.808;37.078;2023-03-24T05:36:28;8.57;68.06
70214;DHT22;60138;55.808;37.078;2023-03-24T05:38:56;8.56;68.27
70214;DHT22;60138;55.808;37.078;2023-03-24T05:41:28;8.57;68.37
70214;DHT22;60138;55.808;37.078;2023-03-24T05:43:54;8.62;68.51
70214;DHT22;60138;55.808;37.078;2023-03-24T05:46:19;8.65;68.45
70214;DHT22;60138;55.808;37.078;2023-03-24T05:48:47;8.65;67.55
70214;DHT22;60138;55.808;37.078;2023-03-24T05:51:15;8.65;67.97
70214;DHT22;60138;55.808;37.078;2023-03-24T05:53:41;8.65;68.43
70214;DHT22;60138;55.808;37.078;2023-03-24T05:56:24;8.65;68.67
70214;DHT22;60138;55.808;37.078;2023-03-24T05:59:02;8.66;68.58
70214;DHT22;60138;55.808;37.078;2023-03-24T06:01:47;8.64;68.33
70214;DHT22;60138;55.808;37.078;2023-03-24T06:04:25;8.61;68.77
70214;DHT22;60138;55.808;37.078;2023-03-24T06:06:58;8.60;68.67
70214;DHT22;60138;55.808;37.078;2023-03-24T06:09:30;8.60;68.27
70214;DHT22;60138;55.808;37.078;2023-03-24T06:11:55;8.60;68.75
70214;DHT22;60138;55.808;37.078;2023-03-24T06:14:23;8.61;68.97
70214;DHT22;60138;55.808;37.078;2023-03-24T06:17:00;8.66;68.62
70214;DHT22;60138;55.808;37.078;2023-03-24T06:19:26;8.74;68.19
70214;DHT22;60138;55.808;37.078;2023-03-24T06:22:03;8.72;68.49
70214;DHT22;60138;55.808;37.078;2023-03-24T06:24:34;8.66;68.36
70214;DHT22;60138;55.808;37.078;2023-03-24T06:27:05;8.68;68.14
70214;DHT22;60138;55.808;37.078;2023-03-24T06:29:33;8.67;68.34
70214;DHT22;60138;55.808;37.078;2023-03-24T06:31:59;8.71;68.58
70214;DHT22;60138;55.808;37.078;2023-03-24T06:34:25;8.74;68.58
70214;DHT22;60138;55.808;37.078;2023-03-24T06:37:10;8.73;70.02
70214;DHT22;60138;55.808;37.078;2023-03-24T06:39:37;8.66;69.19
70214;DHT22;60138;55.808;37.078;2023-03-24T06:42:03;8.70;69.24
70214;DHT22;60138;55.808;37.078;2023-03-24T06:44:29;8.67;67.41
70214;DHT22;60138;55.808;37.078;2023-03-24T06:46:55;8.63;67.94
70214;DHT22;60138;55.808;37.078;2023-03-24T06:49:21;8.61;68.01
70214;DHT22;60138;55.808;37.078;2023-03-24T06:51:46;8.61;68.03
70214;DHT22;60138;55.808;37.078;2023-03-24T06:54:14;8.61;68.21
70214;DHT22;60138;55.808;37.078;2023-03-24T06:56:40;8.61;68.27
70214;DHT22;60138;55.808;37.078;2023-03-24T06:59:06;8.58;67.61
70214;DHT22;60138;55.808;37.078;2023-03-24T07:01:32;8.59;67.65
70214;DHT22;60138;55.808;37.078;2023-03-24T07:04:04;8.59;67.90
70214;DHT22;60138;55.808;37.078;2023-03-24T07:06:50;8.58;69.71
70214;DHT22;60138;55.808;37.078;2023-03-24T07:09:17;8.64;69.49
70214;DHT22;60138;55.808;37.078;2023-03-24T07:11:43;8.66;70.07
70214;DHT22;60138;55.808;37.078;2023-03-24T07:14:08;8.73;69.24
70214;DHT22;60138;55.808;37.078;2023-03-24T07:16:35;8.73;69.65
70214;DHT22;60138;55.808;37.078;2023-03-24T07:19:19;8.76;68.82
70214;DHT22;60138;55.808;37.078;2023-03-24T07:21:51;8.75;69.90
70214;DHT22;60138;55.808;37.078;2023-03-24T07:24:24;8.76;69.51
70214;DHT22;60138;55.808;37.078;2023-03-24T07:27:03;8.74;69.75
70214;DHT22;60138;55.808;37.078;2023-03-24T07:29:29;8.71;68.65
70214;DHT22;60138;55.808;37.078;2023-03-24T07:32:21;8.68;68.82
70214;DHT22;60138;55.808;37.078;2023-03-24T07:34:47;8.74;69.16
70214;DHT22;60138;55.808;37.078;2023-03-24T07:37:12;8.75;69.11
70214;DHT22;60138;55.808;37.078;2023-03-24T07:39:39;8.72;68.71
70214;DHT22;60138;55.808;37.078;2023-03-24T07:42:04;8.68;68.78
70214;DHT22;60138;55.808;37.078;2023-03-24T07:45:03;8.62;69.42
70214;DHT22;60138;55.808;37.078;2023-03-24T07:47:29;8.58;69.42
70214;DHT22;60138;55.808;37.078;2023-03-24T07:49:54;8.59;68.52
70214;DHT22;60138;55.808;37.078;2023-03-24T07:52:20;8.61;67.84
70214;DHT22;60138;55.808;37.078;2023-03-24T07:54:50;8.65;69.78
70214;DHT22;60138;55.808;37.078;2023-03-24T07:57:50;8.66;70.16
70214;DHT22;60138;55.808;37.078;2023-03-24T08:00:16;8.78;69.95
70214;DHT22;60138;55.808;37.078;2023-03-24T08:02:51;8.90;69.84
70214;DHT22;60138;55.808;37.078;2023-03-24T08:05:36;9.00;68.45
70214;DHT22;60138;55.808;37.078;2023-03-24T08:08:14;9.00;68.23
70214;DHT22;60138;55.808;37.078;2023-03-24T08:10:40;9.06;68.67
70214;DHT22;60138;55.808;37.078;2023-03-24T08:13:05;9.07;68.78
70214;DHT22;60138;55.808;37.078;2023-03-24T08:15:31;9.09;67.78
70214;DHT22;60138;55.808;37.078;2023-03-24T08:17:57;9.14;67.34
70214;DHT22;60138;55.808;37.078;2023-03-24T08:20:22;9.16;67.15
70214;DHT22;60138;55.808;37.078;2023-03-24T08:22:48;9.23;67.65
70214;DHT22;60138;55.808;37.078;2023-03-24T08:25:17;9.27;68.50
70214;DHT22;60138;55.808;37.078;2023-03-24T08:27:43;9.32;69.10
70214;DHT22;60138;55.808;37.078;2023-03-24T08:30:13;9.35;69.38
70214;DHT22;60138;55.808;37.078;2023-03-24T08:32:50;9.36;68.56
70214;DHT22;60138;55.808;37.078;2023-03-24T08:35:19;9.33;70.82
70214;DHT22;60138;55.808;37.078;2023-03-24T08:37:45;9.26;70.54
70214;DHT22;60138;55.808;37.078;2023-03-24T08:40:14;9.20;68.30
70214;DHT22;60138;55.808;37.078;2023-03-24T08:42:40;9.11;67.93
70214;DHT22;60138;55.808;37.078;2023-03-24T08:45:07;9.07;67.71
70214;DHT22;60138;55.808;37.078;2023-03-24T08:47:33;9.04;68.32
70214;DHT22;60138;55.808;37.078;2023-03-24T08:49:58;9.03;68.25
70214;DHT22;60138;55.808;37.078;2023-03-24T08:52:25;9.04;68.87
70214;DHT22;60138;55.808;37.078;2023-03-24T08:54:51;9.05;68.43
70214;DHT22;60138;55.808;37.078;2023-03-24T08:57:17;9.11;67.94
70214;DHT22;60138;55.808;37.078;2023-03-24T08:59:43;9.22;71.28
70214;DHT22;60138;55.808;37.078;2023-03-24T09:02:11;9.35;69.08
70214;DHT22;60138;55.808;37.078;2023-03-24T09:04:37;9.40;69.30
70214;DHT22;60138;55.808;37.078;2023-03-24T09:07:03;9.39;67.97
70214;DHT22;60138;55.808;37.078;2023-03-24T09:09:29;9.34;68.01
70214;DHT22;60138;55.808;37.078;2023-03-24T09:11:54;9.36;68.21
70214;DHT22;60138;55.808;37.078;2023-03-24T09:14:21;9.37;68.42
70214;DHT22;60138;55.808;37.078;2023-03-24T09:16:47;9.29;68.34
70214;DHT22;60138;55.808;37.078;2023-03-24T09:19:13;9.27;68.25
70214;DHT22;60138;55.808;37.078;2023-03-24T09:21:38;9.24;67.68
70214;DHT22;60138;55.808;37.078;2023-03-24T09:24:04;9.18;68.07
70214;DHT22;60138;55.808;37.078;2023-03-24T09:26:30;9.14;68.18
70214;DHT22;60138;55.808;37.078;2023-03-24T09:28:56;9.09;68.74
70214;DHT22;60138;55.808;37.078;2023-03-24T09:31:21;9.08;68.26
70214;DHT22;60138;55.808;37.078;2023-03-24T09:33:47;9.09;67.95
70214;DHT22;60138;55.808;37.078;2023-03-24T09:36:13;9.12;67.27
70214;DHT22;60138;55.808;37.078;2023-03-24T09:38:38;9.14;67.55
70214;DHT22;60138;55.808;37.078;2023-03-24T09:41:17;9.12;69.36
70214;DHT22;60138;55.808;37.078;2023-03-24T09:43:47;9.14;67.83
70214;DHT22;60138;55.808;37.078;2023-03-24T09:46:30;9.14;68.39
70214;DHT22;60138;55.808;37.078;2023-03-24T09:48:58;9.20;68.00
70214;DHT22;60138;55.808;37.078;2023-03-24T09:51:26;9.27;67.84
70214;DHT22;60138;55.808;37.078;2023-03-24T09:56:25;9.42;69.31
70214;DHT22;60138;55.808;37.078;2023-03-24T10:01:33;9.63;69.00
70214;DHT22;60138;55.808;37.078;2023-03-24T10:04:00;9.81;68.47
70214;DHT22;60138;55.808;37.078;2023-03-24T10:06:30;9.96;68.11
70214;DHT22;60138;55.808;37.078;2023-03-24T10:12:09;10.25;67.07
70214;DHT22;60138;55.808;37.078;2023-03-24T10:14:46;10.23;67.43
70214;DHT22;60138;55.808;37.078;2023-03-24T10:20:30;10.23;67.08
70214;DHT22;60138;55.808;37.078;2023-03-24T10:26:32;10.16;67.08
70214;DHT22;60138;55.808;37.078;2023-03-24T10:31:56;10.21;66.79
70214;DHT22;60138;55.808;37.078;2023-03-24T10:34:27;10.27;67.15
70214;DHT22;60138;55.808;37.078;2023-03-24T10:36:54;10.39;67.52
70214;DHT22;60138;55.808;37.078;2023-03-24T10:39:21;10.58;66.43
70214;DHT22;60138;55.808;37.078;2023-03-24T10:41:47;10.66;66.11
70214;DHT22;60138;55.808;37.078;2023-03-24T10:44:13;10.65;66.50
70214;DHT22;60138;55.808;37.078;2023-03-24T10:46:45;10.77;66.44
70214;DHT22;60138;55.808;37.078;2023-03-24T10:51:37;11.24;65.70
70214;DHT22;60138;55.808;37.078;2023-03-24T10:54:18;11.38;65.34
70214;DHT22;60138;55.808;37.078;2023-03-24T10:56:49;11.52;65.33
70214;DHT22;60138;55.808;37.078;2023-03-24T11:02:29;11.44;65.05
70214;DHT22;60138;55.808;37.078;2023-03-24T11:05:17;11.43;64.92
70214;DHT22;60138;55.808;37.078;2023-03-24T11:07:46;11.40;64.90
70214;DHT22;60138;55.808;37.078;2023-03-24T11:10:15;11.32;64.77
70214;DHT22;60138;55.808;37.078;2023-03-24T11:15:23;11.11;65.03
70214;DHT22;60138;55.808;37.078;2023-03-24T11:17:54;11.22;64.94
70214;DHT22;60138;55.808;37.078;2023-03-24T11:20:43;11.29;65.18
70214;DHT22;60138;55.808;37.078;2023-03-24T11:26:05;11.42;64.69
70214;DHT22;60138;55.808;37.078;2023-03-24T11:28:40;11.56;64.90
70214;DHT22;60138;55.808;37.078;2023-03-24T11:31:09;11.73;64.56
70214;DHT22;60138;55.808;37.078;2023-03-24T11:33:47;11.69;64.18
70214;DHT22;60138;55.808;37.078;2023-03-24T11:39:08;11.47;64.45
70214;DHT22;60138;55.808;37.078;2023-03-24T11:41:36;11.42;64.37
70214;DHT22;60138;55.808;37.078;2023-03-24T11:46:42;11.20;64.53
70214;DHT22;60138;55.808;37.078;2023-03-24T11:49:12;11.27;64.56
70214;DHT22;60138;55.808;37.078;2023-03-24T11:51:41;11.28;64.76
70214;DHT22;60138;55.808;37.078;2023-03-24T11:54:12;11.49;63.94
70214;DHT22;60138;55.808;37.078;2023-03-24T11:56:42;11.20;64.37
70214;DHT22;60138;55.808;37.078;2023-03-24T12:12:41;11.29;64.53
70214;DHT22;60138;55.808;37.078;2023-03-24T12:17:42;11.51;64.06
70214;DHT22;60138;55.808;37.078;2023-03-24T12:23:43;11.10;64.18
70214;DHT22;60138;55.808;37.078;2023-03-24T12:26:19;11.02;64.14
70214;DHT22;60138;55.808;37.078;2023-03-24T12:37:21;11.16;64.37
70214;DHT22;60138;55.808;37.078;2023-03-24T12:40:26;11.23;64.22
70214;DHT22;60138;55.808;37.078;2023-03-24T12:46:10;11.05;63.82
70214;DHT22;60138;55.808;37.078;2023-03-24T12:48:51;11.08;63.58
70214;DHT22;60138;55.808;37.078;2023-03-24T12:52:06;11.67;63.74
70214;DHT22;60138;55.808;37.078;2023-03-24T12:56:55;13.59;61.38
70214;DHT22;60138;55.808;37.078;2023-03-24T12:59:44;14.49;60.58
70214;DHT22;60138;55.808;37.078;2023-03-24T13:02:35;14.97;54.04
70214;DHT22;60138;55.808;37.078;2023-03-24T13:05:06;15.26;60.83
70214;DHT22;60138;55.808;37.078;2023-03-24T13:07:35;15.25;59.64
70214;DHT22;60138;55.808;37.078;2023-03-24T13:10:06;15.33;61.17
70214;DHT22;60138;55.808;37.078;2023-03-24T13:12:58;15.13;56.74
70214;DHT22;60138;55.808;37.078;2023-03-24T13:15:39;14.78;58.93
70214;DHT22;60138;55.808;37.078;2023-03-24T13:20:53;15.11;60.90
70214;DHT22;60138;55.808;37.078;2023-03-24T13:25:57;14.01;55.90
70214;DHT22;60138;55.808;37.078;2023-03-24T13:28:29;13.53;59.68
70214;DHT22;60138;55.808;37.078;2023-03-24T13:30:57;13.24;59.96
70214;DHT22;60138;55.808;37.078;2023-03-24T13:33:28;12.92;57.39
70214;DHT22;60138;55.808;37.078;2023-03-24T13:38:38;12.46;59.95
70214;DHT22;60138;55.808;37.078;2023-03-24T13:41:06;12.18;60.56
70214;DHT22;60138;55.808;37.078;2023-03-24T13:43:36;12.01;60.94
70214;DHT22;60138;55.808;37.078;2023-03-24T13:46:03;12.01;60.25
70214;DHT22;60138;55.808;37.078;2023-03-24T13:48:45;11.91;59.98
70214;DHT22;60138;55.808;37.078;2023-03-24T13:56:52;11.47;61.20
70214;DHT22;60138;55.808;37.078;2023-03-24T14:10:28;10.85;61.48
70214;DHT22;60138;55.808;37.078;2023-03-24T14:13:02;10.78;61.52
70214;DHT22;60138;55.808;37.078;2023-03-24T14:15:32;10.69;61.69
70214;DHT22;60138;55.808;37.078;2023-03-24T14:21:03;10.49;61.64
70214;DHT22;60138;55.808;37.078;2023-03-24T14:23:47;10.44;61.85
70214;DHT22;60138;55.808;37.078;2023-03-24T14:28:50;10.41;62.01
70214;DHT22;60138;55.808;37.078;2023-03-24T14:31:26;10.39;62.14
70214;DHT22;60138;55.808;37.078;2023-03-24T14:36:39;10.34;62.15
70214;DHT22;60138;55.808;37.078;2023-03-24T14:39:25;10.28;62.04
70214;DHT22;60138;55.808;37.078;2023-03-24T14:41:51;10.22;62.11
70214;DHT22;60138;55.808;37.078;2023-03-24T14:47:16;10.10;61.94
70214;DHT22;60138;55.808;37.078;2023-03-24T14:49:45;10.06;62.04
70214;DHT22;60138;55.808;37.078;2023-03-24T14:52:19;9.99;62.08
70214;DHT22;60138;55.808;37.078;2023-03-24T14:54:56;9.92;61.95
70214;DHT22;60138;55.808;37.078;2023-03-24T14:57:25;9.88;62.04
70214;DHT22;60138;55.808;37.078;2023-03-24T15:02:38;9.74;62.21
70214;DHT22;60138;55.808;37.078;2023-03-24T15:07:44;9.60;62.24
70214;DHT22;60138;55.808;37.078;2023-03-24T15:10:16;9.56;62.23
70214;DHT22;60138;55.808;37.078;2023-03-24T15:12:46;9.52;62.31
70214;DHT22;60138;55.808;37.078;2023-03-24T15:15:17;9.48;62.34
70214;DHT22;60138;55.808;37.078;2023-03-24T15:17:44;9.42;62.29
70214;DHT22;60138;55.808;37.078;2023-03-24T15:20:28;9.37;62.46
70214;DHT22;60138;55.808;37.078;2023-03-24T15:23:06;9.30;62.42
70214;DHT22;60138;55.808;37.078;2023-03-24T15:25:32;9.25;62.55
70214;DHT22;60138;55.808;37.078;2023-03-24T15:27:58;9.21;62.66
70214;DHT22;60138;55.808;37.078;2023-03-24T15:30:27;9.22;62.86
70214;DHT22;60138;55.808;37.078;2023-03-24T15:32:53;9.23;62.83
70214;DHT22;60138;55.808;37.078;2023-03-24T15:35:21;9.25;62.89
70214;DHT22;60138;55.808;37.078;2023-03-24T15:37:53;9.21;62.81
70214;DHT22;60138;55.808;37.078;2023-03-24T15:42:53;9.14;63.08
70214;DHT22;60138;55.808;37.078;2023-03-24T15:45:27;9.11;63.00
70214;DHT22;60138;55.808;37.078;2023-03-24T15:47:54;9.10;63.29
70214;DHT22;60138;55.808;37.078;2023-03-24T15:50:38;9.14;63.31
70214;DHT22;60138;55.808;37.078;2023-03-24T15:55:41;9.06;63.26
70214;DHT22;60138;55.808;37.078;2023-03-24T15:58:25;9.01;63.37
70214;DHT22;60138;55.808;37.078;2023-03-24T16:00:54;8.97;63.33
70214;DHT22;60138;55.808;37.078;2023-03-24T16:03:21;8.92;63.30
70214;DHT22;60138;55.808;37.078;2023-03-24T16:05:48;8.89;63.50
70214;DHT22;60138;55.808;37.078;2023-03-24T16:08:41;8.88;63.53
70214;DHT22;60138;55.808;37.078;2023-03-24T16:11:09;8.87;63.39
70214;DHT22;60138;55.808;37.078;2023-03-24T16:13:39;8.85;63.21
70214;DHT22;60138;55.808;37.078;2023-03-24T16:18:39;8.78;63.53
70214;DHT22;60138;55.808;37.078;2023-03-24T16:21:27;8.77;63.61
70214;DHT22;60138;55.808;37.078;2023-03-24T16:23:56;8.73;63.43
70214;DHT22;60138;55.808;37.078;2023-03-24T16:26:22;8.66;63.49
70214;DHT22;60138;55.808;37.078;2023-03-24T16:28:49;8.58;63.37
70214;DHT22;60138;55.808;37.078;2023-03-24T16:31:22;8.51;63.34
70214;DHT22;60138;55.808;37.078;2023-03-24T16:33:50;8.50;63.24
70214;DHT22;60138;55.808;37.078;2023-03-24T16:36:16;8.51;63.27
70214;DHT22;60138;55.808;37.078;2023-03-24T16:38:42;8.48;63.33
70214;DHT22;60138;55.808;37.078;2023-03-24T16:41:08;8.42;63.44
70214;DHT22;60138;55.808;37.078;2023-03-24T16:43:34;8.28;63.52
70214;DHT22;60138;55.808;37.078;2023-03-24T16:46:00;8.07;63.69
70214;DHT22;60138;55.808;37.078;2023-03-24T16:48:26;7.89;63.95
70214;DHT22;60138;55.808;37.078;2023-03-24T16:50:51;7.75;64.22
70214;DHT22;60138;55.808;37.078;2023-03-24T16:53:18;7.60;64.46
70214;DHT22;60138;55.808;37.078;2023-03-24T16:55:44;7.46;64.78
70214;DHT22;60138;55.808;37.078;2023-03-24T16:58:11;7.30;64.99
70214;DHT22;60138;55.808;37.078;2023-03-24T17:00:37;7.12;65.08
70214;DHT22;60138;55.808;37.078;2023-03-24T17:03:04;6.98;65.56
70214;DHT22;60138;55.808;37.078;2023-03-24T17:05:44;6.88;66.16
70214;DHT22;60138;55.808;37.078;2023-03-24T17:08:10;6.86;66.08
70214;DHT22;60138;55.808;37.078;2023-03-24T17:10:35;6.85;66.02
70214;DHT22;60138;55.808;37.078;2023-03-24T17:13:02;6.76;66.24
70214;DHT22;60138;55.808;37.078;2023-03-24T17:15:29;6.66;66.40
70214;DHT22;60138;55.808;37.078;2023-03-24T17:17:55;6.58;66.79
70214;DHT22;60138;55.808;37.078;2023-03-24T17:20:22;6.48;66.91
70214;DHT22;60138;55.808;37.078;2023-03-24T17:22:51;6.40;67.28
70214;DHT22;60138;55.808;37.078;2023-03-24T17:25:19;6.39;67.63
70214;DHT22;60138;55.808;37.078;2023-03-24T17:27:45;6.38;68.03
70214;DHT22;60138;55.808;37.078;2023-03-24T17:30:16;6.35;68.17
70214;DHT22;60138;55.808;37.078;2023-03-24T17:32:43;6.30;68.27
70214;DHT22;60138;55.808;37.078;2023-03-24T17:35:14;6.29;68.01
70214;DHT22;60138;55.808;37.078;2023-03-24T17:37:40;6.29;68.34
70214;DHT22;60138;55.808;37.078;2023-03-24T17:40:06;6.23;68.52
70214;DHT22;60138;55.808;37.078;2023-03-24T17:42:32;6.16;68.71
70214;DHT22;60138;55.808;37.078;2023-03-24T17:44:57;6.13;69.08
70214;DHT22;60138;55.808;37.078;2023-03-24T17:47:23;6.13;69.40
70214;DHT22;60138;55.808;37.078;2023-03-24T17:49:49;6.09;69.36
70214;DHT22;60138;55.808;37.078;2023-03-24T17:52:15;6.07;69.42
70214;DHT22;60138;55.808;37.078;2023-03-24T17:54:40;6.04;69.55
70214;DHT22;60138;55.808;37.078;2023-03-24T17:57:06;5.99;69.56
70214;DHT22;60138;55.808;37.078;2023-03-24T17:59:32;5.93;69.68
70214;DHT22;60138;55.808;37.078;2023-03-24T18:01:58;5.87;69.86
70214;DHT22;60138;55.808;37.078;2023-03-24T18:04:24;5.80;69.90
70214;DHT22;60138;55.808;37.078;2023-03-24T18:06:49;5.74;70.06
70214;DHT22;60138;55.808;37.078;2023-03-24T18:09:15;5.68;70.11
70214;DHT22;60138;55.808;37.078;2023-03-24T18:11:41;5.62;70.18
70214;DHT22;60138;55.808;37.078;2023-03-24T18:14:07;5.56;70.45
70214;DHT22;60138;55.808;37.078;2023-03-24T18:16:32;5.52;70.66
70214;DHT22;60138;55.808;37.078;2023-03-24T18:18:58;5.49;70.69
70214;DHT22;60138;55.808;37.078;2023-03-24T18:21:24;5.46;70.84
70214;DHT22;60138;55.808;37.078;2023-03-24T18:23:49;5.43;71.01
70214;DHT22;60138;55.808;37.078;2023-03-24T18:26:16;5.40;71.05
70214;DHT22;60138;55.808;37.078;2023-03-24T18:28:43;5.37;71.16
70214;DHT22;60138;55.808;37.078;2023-03-24T18:31:11;5.33;71.30
70214;DHT22;60138;55.808;37.078;2023-03-24T18:33:37;5.30;71.45
70214;DHT22;60138;55.808;37.078;2023-03-24T18:36:03;5.24;71.42
70214;DHT22;60138;55.808;37.078;2023-03-24T18:38:28;5.18;71.40
70214;DHT22;60138;55.808;37.078;2023-03-24T18:43:24;5.09;71.46